<?xml version="1.0" encoding="UTF-8" standalone="no" ?><gpx xmlns="http://www.topografix.com/GPX/1/1" xmlns:gpxx="http://www.garmin.com/xmlschemas/GpxExtensions/v3" xmlns:wptx1="http://www.garmin.com/xmlschemas/WaypointExtension/v1" xmlns:gpxtpx="http://www.garmin.com/xmlschemas/TrackPointExtension/v1" creator="Dakota 20" version="1.1" xmlns:xsi="http://www.w3.org/2001/XMLSchema-instance" xsi:schemaLocation="http://www.topografix.com/GPX/1/1 http://www.topografix.com/GPX/1/1/gpx.xsd http://www.garmin.com/xmlschemas/GpxExtensions/v3 http://www8.garmin.com/xmlschemas/GpxExtensionsv3.xsd http://www.garmin.com/xmlschemas/WaypointExtension/v1 http://www8.garmin.com/xmlschemas/WaypointExtensionv1.xsd http://www.garmin.com/xmlschemas/TrackPointExtension/v1 http://www.garmin.com/xmlschemas/TrackPointExtensionv1.xsd"><metadata><link href="http://www.garmin.com"><text>Garmin International</text></link><time>2013-10-30T16:59:03Z</time></metadata><trk><name>Current Track: 30 OCT 2013 10:01</name><extensions><gpxx:TrackExtension><gpxx:DisplayColor>Cyan</gpxx:DisplayColor></gpxx:TrackExtension></extensions><trkseg><trkpt lat="51.9519716967" lon="-1.9721883908"><ele>106.84</ele><time>2013-10-30T10:01:14Z</time></trkpt><trkpt lat="51.9518462196" lon="-1.9715280645"><ele>103.96</ele><time>2013-10-30T10:03:12Z</time></trkpt><trkpt lat="51.9522775523" lon="-1.9694485981"><ele>102.04</ele><time>2013-10-30T10:05:12Z</time></trkpt><trkpt lat="51.9523537438" lon="-1.9679051545"><ele>99.63</ele><time>2013-10-30T10:07:58Z</time></trkpt><trkpt lat="51.9526417460" lon="-1.9661609642"><ele>98.67</ele><time>2013-10-30T10:09:21Z</time></trkpt><trkpt lat="51.9533530343" lon="-1.9643161073"><ele>98.67</ele><time>2013-10-30T10:11:28Z</time></trkpt><trkpt lat="51.9544616248" lon="-1.9629703090"><ele>95.31</ele><time>2013-10-30T10:13:46Z</time></trkpt><trkpt lat="51.9554683752" lon="-1.9623241480"><ele>90.02</ele><time>2013-10-30T10:15:36Z</time></trkpt><trkpt lat="51.9564523268" lon="-1.9617138617"><ele>87.14</ele><time>2013-10-30T10:17:22Z</time></trkpt><trkpt lat="51.9574872404" lon="-1.9610226899"><ele>85.69</ele><time>2013-10-30T10:19:17Z</time></trkpt><trkpt lat="51.9570042752" lon="-1.9606181793"><ele>86.66</ele><time>2013-10-30T10:21:32Z</time></trkpt><trkpt lat="51.9562141970" lon="-1.9607214443"><ele>85.21</ele><time>2013-10-30T10:23:42Z</time></trkpt><trkpt lat="51.9550913572" lon="-1.9609568082"><ele>88.58</ele><time>2013-10-30T10:25:29Z</time></trkpt><trkpt lat="51.9541007001" lon="-1.9611249492"><ele>91.46</ele><time>2013-10-30T10:27:52Z</time></trkpt><trkpt lat="51.9531145692" lon="-1.9616477285"><ele>91.94</ele><time>2013-10-30T10:30:26Z</time></trkpt><trkpt lat="51.9518179726" lon="-1.9613360055"><ele>95.31</ele><time>2013-10-30T10:33:54Z</time></trkpt></trkseg><trkseg><trkpt lat="51.9510175008" lon="-1.9609540422"><ele>99.15</ele><time>2013-10-30T10:35:11Z</time></trkpt><trkpt lat="51.9510195963" lon="-1.9609478395"><ele>99.15</ele><time>2013-10-30T10:35:13Z</time></trkpt><trkpt lat="51.9510202669" lon="-1.9609466661"><ele>98.67</ele><time>2013-10-30T10:35:20Z</time></trkpt><trkpt lat="51.9508349430" lon="-1.9609406311"><ele>98.67</ele><time>2013-10-30T10:35:37Z</time></trkpt><trkpt lat="51.9506259821" lon="-1.9608999789"><ele>99.63</ele><time>2013-10-30T10:35:54Z</time></trkpt><trkpt lat="51.9504621159" lon="-1.9608686306"><ele>99.63</ele><time>2013-10-30T10:36:08Z</time></trkpt><trkpt lat="51.9503469486" lon="-1.9608292356"><ele>100.11</ele><time>2013-10-30T10:36:19Z</time></trkpt><trkpt lat="51.9502959866" lon="-1.9608112983"><ele>99.63</ele><time>2013-10-30T10:36:23Z</time></trkpt><trkpt lat="51.9501997624" lon="-1.9607853983"><ele>100.60</ele><time>2013-10-30T10:36:31Z</time></trkpt><trkpt lat="51.9501437712" lon="-1.9607625995"><ele>100.60</ele><time>2013-10-30T10:36:35Z</time></trkpt><trkpt lat="51.9500796497" lon="-1.9607135653"><ele>101.08</ele><time>2013-10-30T10:36:40Z</time></trkpt><trkpt lat="51.9500564318" lon="-1.9607025012"><ele>100.11</ele><time>2013-10-30T10:36:42Z</time></trkpt><trkpt lat="51.9500174560" lon="-1.9606843125"><ele>100.60</ele><time>2013-10-30T10:36:45Z</time></trkpt><trkpt lat="51.9498576131" lon="-1.9606590830"><ele>101.08</ele><time>2013-10-30T10:36:59Z</time></trkpt><trkpt lat="51.9497483969" lon="-1.9603966456"><ele>101.08</ele><time>2013-10-30T10:37:14Z</time></trkpt><trkpt lat="51.9497218262" lon="-1.9602773711"><ele>101.56</ele><time>2013-10-30T10:37:22Z</time></trkpt><trkpt lat="51.9496674277" lon="-1.9601179473"><ele>101.56</ele><time>2013-10-30T10:37:33Z</time></trkpt><trkpt lat="51.9496263564" lon="-1.9598876126"><ele>102.52</ele><time>2013-10-30T10:37:50Z</time></trkpt><trkpt lat="51.9495547749" lon="-1.9596824236"><ele>102.52</ele><time>2013-10-30T10:38:05Z</time></trkpt><trkpt lat="51.9494945928" lon="-1.9594360795"><ele>103.00</ele><time>2013-10-30T10:38:22Z</time></trkpt><trkpt lat="51.9494596403" lon="-1.9593296293"><ele>103.00</ele><time>2013-10-30T10:38:38Z</time></trkpt><trkpt lat="51.9494563714" lon="-1.9593047351"><ele>103.48</ele><time>2013-10-30T10:38:59Z</time></trkpt><trkpt lat="51.9494429603" lon="-1.9592816848"><ele>103.48</ele><time>2013-10-30T10:39:15Z</time></trkpt><trkpt lat="51.9494476542" lon="-1.9592681900"><ele>103.48</ele><time>2013-10-30T10:39:38Z</time></trkpt><trkpt lat="51.9493935909" lon="-1.9591626618"><ele>103.48</ele><time>2013-10-30T10:39:58Z</time></trkpt><trkpt lat="51.9492907450" lon="-1.9589165691"><ele>103.96</ele><time>2013-10-30T10:40:16Z</time></trkpt><trkpt lat="51.9491881505" lon="-1.9586978853"><ele>104.44</ele><time>2013-10-30T10:40:31Z</time></trkpt><trkpt lat="51.9491413794" lon="-1.9586653635"><ele>104.44</ele><time>2013-10-30T10:40:35Z</time></trkpt><trkpt lat="51.9490999728" lon="-1.9586509466"><ele>103.96</ele><time>2013-10-30T10:40:38Z</time></trkpt><trkpt lat="51.9489488471" lon="-1.9587164093"><ele>104.92</ele><time>2013-10-30T10:40:52Z</time></trkpt><trkpt lat="51.9488452468" lon="-1.9588085264"><ele>104.92</ele><time>2013-10-30T10:41:08Z</time></trkpt><trkpt lat="51.9488122221" lon="-1.9587894157"><ele>104.44</ele><time>2013-10-30T10:41:23Z</time></trkpt><trkpt lat="51.9487909321" lon="-1.9587718975"><ele>104.92</ele><time>2013-10-30T10:41:30Z</time></trkpt><trkpt lat="51.9486398902" lon="-1.9586815406"><ele>104.44</ele><time>2013-10-30T10:41:46Z</time></trkpt><trkpt lat="51.9484781194" lon="-1.9585667923"><ele>104.92</ele><time>2013-10-30T10:42:02Z</time></trkpt><trkpt lat="51.9482944719" lon="-1.9584555645"><ele>105.40</ele><time>2013-10-30T10:42:18Z</time></trkpt><trkpt lat="51.9481591880" lon="-1.9584132358"><ele>105.88</ele><time>2013-10-30T10:42:31Z</time></trkpt><trkpt lat="51.9480330404" lon="-1.9583109766"><ele>105.88</ele><time>2013-10-30T10:42:45Z</time></trkpt><trkpt lat="51.9479087368" lon="-1.9582549017"><ele>105.88</ele><time>2013-10-30T10:42:57Z</time></trkpt><trkpt lat="51.9478783105" lon="-1.9582306780"><ele>105.40</ele><time>2013-10-30T10:43:00Z</time></trkpt><trkpt lat="51.9478260912" lon="-1.9582041074"><ele>104.92</ele><time>2013-10-30T10:43:04Z</time></trkpt><trkpt lat="51.9477161206" lon="-1.9581554923"><ele>105.40</ele><time>2013-10-30T10:43:18Z</time></trkpt><trkpt lat="51.9475654978" lon="-1.9581505470"><ele>104.92</ele><time>2013-10-30T10:43:35Z</time></trkpt><trkpt lat="51.9474885520" lon="-1.9581117388"><ele>104.92</ele><time>2013-10-30T10:43:51Z</time></trkpt><trkpt lat="51.9473800063" lon="-1.9580736011"><ele>104.44</ele><time>2013-10-30T10:44:05Z</time></trkpt><trkpt lat="51.9473495800" lon="-1.9580510538"><ele>104.92</ele><time>2013-10-30T10:44:18Z</time></trkpt><trkpt lat="51.9472558703" lon="-1.9579615351"><ele>104.92</ele><time>2013-10-30T10:44:32Z</time></trkpt><trkpt lat="51.9472470693" lon="-1.9579523988"><ele>104.92</ele><time>2013-10-30T10:44:33Z</time></trkpt><trkpt lat="51.9471211731" lon="-1.9578249101"><ele>105.40</ele><time>2013-10-30T10:44:51Z</time></trkpt><trkpt lat="51.9470757432" lon="-1.9578051288"><ele>105.40</ele><time>2013-10-30T10:44:55Z</time></trkpt><trkpt lat="51.9469578099" lon="-1.9577678293"><ele>105.88</ele><time>2013-10-30T10:45:04Z</time></trkpt><trkpt lat="51.9469047524" lon="-1.9577516522"><ele>104.92</ele><time>2013-10-30T10:45:08Z</time></trkpt><trkpt lat="51.9467607513" lon="-1.9576823339"><ele>105.88</ele><time>2013-10-30T10:45:21Z</time></trkpt><trkpt lat="51.9467488490" lon="-1.9576786458"><ele>105.88</ele><time>2013-10-30T10:45:22Z</time></trkpt><trkpt lat="51.9467113819" lon="-1.9576624688"><ele>104.92</ele><time>2013-10-30T10:45:25Z</time></trkpt><trkpt lat="51.9465326797" lon="-1.9575568568"><ele>105.40</ele><time>2013-10-30T10:45:38Z</time></trkpt><trkpt lat="51.9464539737" lon="-1.9575155340"><ele>105.40</ele><time>2013-10-30T10:45:45Z</time></trkpt><trkpt lat="51.9463333581" lon="-1.9574157055"><ele>106.36</ele><time>2013-10-30T10:45:56Z</time></trkpt><trkpt lat="51.9462983217" lon="-1.9573673420"><ele>105.40</ele><time>2013-10-30T10:46:01Z</time></trkpt><trkpt lat="51.9462581724" lon="-1.9573691860"><ele>105.40</ele><time>2013-10-30T10:46:05Z</time></trkpt><trkpt lat="51.9461326115" lon="-1.9573656656"><ele>105.88</ele><time>2013-10-30T10:46:20Z</time></trkpt><trkpt lat="51.9461248163" lon="-1.9573731255"><ele>104.92</ele><time>2013-10-30T10:46:37Z</time></trkpt><trkpt lat="51.9460327830" lon="-1.9573245943"><ele>104.44</ele><time>2013-10-30T10:46:46Z</time></trkpt><trkpt lat="51.9458766282" lon="-1.9572429545"><ele>104.44</ele><time>2013-10-30T10:46:59Z</time></trkpt><trkpt lat="51.9457110018" lon="-1.9571758993"><ele>103.48</ele><time>2013-10-30T10:47:12Z</time></trkpt><trkpt lat="51.9455603790" lon="-1.9571491610"><ele>101.56</ele><time>2013-10-30T10:47:25Z</time></trkpt><trkpt lat="51.9454107620" lon="-1.9571141247"><ele>100.60</ele><time>2013-10-30T10:47:37Z</time></trkpt><trkpt lat="51.9453806709" lon="-1.9571178127"><ele>100.11</ele><time>2013-10-30T10:47:39Z</time></trkpt><trkpt lat="51.9453141186" lon="-1.9570936728"><ele>101.08</ele><time>2013-10-30T10:47:45Z</time></trkpt><trkpt lat="51.9452565350" lon="-1.9570820220"><ele>101.56</ele><time>2013-10-30T10:47:50Z</time></trkpt><trkpt lat="51.9451906532" lon="-1.9570836984"><ele>102.52</ele><time>2013-10-30T10:47:56Z</time></trkpt><trkpt lat="51.9450699538" lon="-1.9570117816"><ele>103.96</ele><time>2013-10-30T10:48:09Z</time></trkpt><trkpt lat="51.9450672716" lon="-1.9569904916"><ele>103.96</ele><time>2013-10-30T10:48:16Z</time></trkpt><trkpt lat="51.9450475741" lon="-1.9569955207"><ele>103.96</ele><time>2013-10-30T10:48:18Z</time></trkpt><trkpt lat="51.9449417107" lon="-1.9569655973"><ele>104.44</ele><time>2013-10-30T10:48:28Z</time></trkpt><trkpt lat="51.9447849691" lon="-1.9569112826"><ele>105.40</ele><time>2013-10-30T10:48:42Z</time></trkpt><trkpt lat="51.9446200132" lon="-1.9568516035"><ele>104.92</ele><time>2013-10-30T10:48:56Z</time></trkpt><trkpt lat="51.9444349408" lon="-1.9567642640"><ele>104.44</ele><time>2013-10-30T10:49:11Z</time></trkpt><trkpt lat="51.9442712422" lon="-1.9567127991"><ele>104.44</ele><time>2013-10-30T10:49:25Z</time></trkpt><trkpt lat="51.9441244751" lon="-1.9566591550"><ele>103.96</ele><time>2013-10-30T10:49:37Z</time></trkpt><trkpt lat="51.9439636264" lon="-1.9566143118"><ele>103.96</ele><time>2013-10-30T10:49:52Z</time></trkpt><trkpt lat="51.9438163564" lon="-1.9565904234"><ele>100.60</ele><time>2013-10-30T10:50:06Z</time></trkpt><trkpt lat="51.9437409192" lon="-1.9565750007"><ele>100.11</ele><time>2013-10-30T10:50:14Z</time></trkpt><trkpt lat="51.9437140133" lon="-1.9565760903"><ele>99.63</ele><time>2013-10-30T10:50:17Z</time></trkpt><trkpt lat="51.9436554238" lon="-1.9565718155"><ele>98.67</ele><time>2013-10-30T10:50:24Z</time></trkpt><trkpt lat="51.9434892107" lon="-1.9565385394"><ele>97.23</ele><time>2013-10-30T10:50:40Z</time></trkpt><trkpt lat="51.9433670025" lon="-1.9565246254"><ele>97.71</ele><time>2013-10-30T10:50:53Z</time></trkpt><trkpt lat="51.9432278629" lon="-1.9565853104"><ele>97.23</ele><time>2013-10-30T10:51:11Z</time></trkpt><trkpt lat="51.9430664275" lon="-1.9566700514"><ele>96.75</ele><time>2013-10-30T10:51:28Z</time></trkpt><trkpt lat="51.9430049881" lon="-1.9566628430"><ele>97.23</ele><time>2013-10-30T10:51:46Z</time></trkpt><trkpt lat="51.9429769926" lon="-1.9566625077"><ele>97.23</ele><time>2013-10-30T10:52:05Z</time></trkpt><trkpt lat="51.9429617375" lon="-1.9566672016"><ele>97.23</ele><time>2013-10-30T10:52:25Z</time></trkpt><trkpt lat="51.9429568760" lon="-1.9566634297"><ele>97.23</ele><time>2013-10-30T10:52:47Z</time></trkpt><trkpt lat="51.9429522660" lon="-1.9566757511"><ele>97.71</ele><time>2013-10-30T10:53:15Z</time></trkpt><trkpt lat="51.9429569598" lon="-1.9566753320"><ele>97.23</ele><time>2013-10-30T10:53:42Z</time></trkpt><trkpt lat="51.9429580495" lon="-1.9566777628"><ele>97.71</ele><time>2013-10-30T10:54:13Z</time></trkpt><trkpt lat="51.9429593068" lon="-1.9566834625"><ele>97.71</ele><time>2013-10-30T10:54:37Z</time></trkpt><trkpt lat="51.9429617375" lon="-1.9566840492"><ele>98.19</ele><time>2013-10-30T10:55:14Z</time></trkpt><trkpt lat="51.9429656770" lon="-1.9566947781"><ele>98.19</ele><time>2013-10-30T10:55:51Z</time></trkpt><trkpt lat="51.9429629110" lon="-1.9566930179"><ele>98.19</ele><time>2013-10-30T10:56:17Z</time></trkpt><trkpt lat="51.9429601450" lon="-1.9566756673"><ele>98.19</ele><time>2013-10-30T10:56:44Z</time></trkpt><trkpt lat="51.9429399446" lon="-1.9566646032"><ele>97.23</ele><time>2013-10-30T10:57:04Z</time></trkpt><trkpt lat="51.9429543614" lon="-1.9566550478"><ele>97.71</ele><time>2013-10-30T10:57:20Z</time></trkpt><trkpt lat="51.9429551158" lon="-1.9566588197"><ele>98.19</ele><time>2013-10-30T10:57:52Z</time></trkpt><trkpt lat="51.9429523498" lon="-1.9566729851"><ele>98.19</ele><time>2013-10-30T10:58:22Z</time></trkpt><trkpt lat="51.9429515116" lon="-1.9566724822"><ele>97.71</ele><time>2013-10-30T10:58:55Z</time></trkpt><trkpt lat="51.9429542776" lon="-1.9566744100"><ele>97.71</ele><time>2013-10-30T10:59:24Z</time></trkpt><trkpt lat="51.9429494161" lon="-1.9566922635"><ele>97.71</ele><time>2013-10-30T10:59:47Z</time></trkpt><trkpt lat="51.9429466501" lon="-1.9567262940"><ele>98.19</ele><time>2013-10-30T11:00:29Z</time></trkpt><trkpt lat="51.9429478236" lon="-1.9567311555"><ele>98.67</ele><time>2013-10-30T11:00:58Z</time></trkpt><trkpt lat="51.9429846201" lon="-1.9566973764"><ele>98.19</ele><time>2013-10-30T11:01:20Z</time></trkpt><trkpt lat="51.9429845363" lon="-1.9566405471"><ele>98.67</ele><time>2013-10-30T11:01:38Z</time></trkpt><trkpt lat="51.9429453928" lon="-1.9566412177"><ele>99.15</ele><time>2013-10-30T11:01:55Z</time></trkpt><trkpt lat="51.9429563731" lon="-1.9566557184"><ele>98.67</ele><time>2013-10-30T11:02:29Z</time></trkpt><trkpt lat="51.9429614861" lon="-1.9566526171"><ele>98.67</ele><time>2013-10-30T11:03:03Z</time></trkpt><trkpt lat="51.9429595582" lon="-1.9566780981"><ele>98.67</ele><time>2013-10-30T11:03:44Z</time></trkpt><trkpt lat="51.9429569598" lon="-1.9566915091"><ele>98.67</ele><time>2013-10-30T11:04:18Z</time></trkpt><trkpt lat="51.9429640844" lon="-1.9566954486"><ele>98.67</ele><time>2013-10-30T11:04:52Z</time></trkpt><trkpt lat="51.9429668505" lon="-1.9566998072"><ele>98.19</ele><time>2013-10-30T11:05:19Z</time></trkpt><trkpt lat="51.9429636654" lon="-1.9566857256"><ele>99.15</ele><time>2013-10-30T11:05:39Z</time></trkpt><trkpt lat="51.9429329876" lon="-1.9566560537"><ele>99.15</ele><time>2013-10-30T11:05:53Z</time></trkpt><trkpt lat="51.9429189898" lon="-1.9566317461"><ele>98.67</ele><time>2013-10-30T11:06:19Z</time></trkpt><trkpt lat="51.9428470731" lon="-1.9566504378"><ele>99.15</ele><time>2013-10-30T11:06:32Z</time></trkpt><trkpt lat="51.9428089354" lon="-1.9566377811"><ele>99.15</ele><time>2013-10-30T11:06:47Z</time></trkpt><trkpt lat="51.9427149743" lon="-1.9566944428"><ele>98.67</ele><time>2013-10-30T11:07:02Z</time></trkpt><trkpt lat="51.9425672013" lon="-1.9568896573"><ele>99.63</ele><time>2013-10-30T11:07:15Z</time></trkpt><trkpt lat="51.9425403792" lon="-1.9570159726"><ele>99.63</ele><time>2013-10-30T11:07:22Z</time></trkpt><trkpt lat="51.9425511081" lon="-1.9572011288"><ele>99.15</ele><time>2013-10-30T11:07:35Z</time></trkpt><trkpt lat="51.9426909182" lon="-1.9573597983"><ele>99.15</ele><time>2013-10-30T11:07:53Z</time></trkpt><trkpt lat="51.9428233523" lon="-1.9574733730"><ele>98.67</ele><time>2013-10-30T11:08:10Z</time></trkpt><trkpt lat="51.9429779984" lon="-1.9576140214"><ele>98.19</ele><time>2013-10-30T11:08:27Z</time></trkpt><trkpt lat="51.9431737158" lon="-1.9577659853"><ele>98.19</ele><time>2013-10-30T11:08:48Z</time></trkpt><trkpt lat="51.9433414377" lon="-1.9579173625"><ele>98.19</ele><time>2013-10-30T11:09:04Z</time></trkpt><trkpt lat="51.9435204752" lon="-1.9580860902"><ele>97.71</ele><time>2013-10-30T11:09:19Z</time></trkpt><trkpt lat="51.9436724391" lon="-1.9582348689"><ele>97.71</ele><time>2013-10-30T11:09:36Z</time></trkpt><trkpt lat="51.9437977485" lon="-1.9583328534"><ele>97.71</ele><time>2013-10-30T11:09:49Z</time></trkpt><trkpt lat="51.9439752772" lon="-1.9584996533"><ele>98.19</ele><time>2013-10-30T11:10:05Z</time></trkpt><trkpt lat="51.9441118184" lon="-1.9586208556"><ele>98.67</ele><time>2013-10-30T11:10:19Z</time></trkpt><trkpt lat="51.9442833122" lon="-1.9589747395"><ele>99.15</ele><time>2013-10-30T11:10:37Z</time></trkpt><trkpt lat="51.9443999045" lon="-1.9591365941"><ele>98.19</ele><time>2013-10-30T11:10:53Z</time></trkpt><trkpt lat="51.9444884174" lon="-1.9594562799"><ele>96.27</ele><time>2013-10-30T11:11:08Z</time></trkpt><trkpt lat="51.9445045106" lon="-1.9596315455"><ele>95.79</ele><time>2013-10-30T11:11:16Z</time></trkpt><trkpt lat="51.9445687998" lon="-1.9598467089"><ele>95.79</ele><time>2013-10-30T11:11:29Z</time></trkpt><trkpt lat="51.9446255453" lon="-1.9599503931"><ele>95.31</ele><time>2013-10-30T11:11:44Z</time></trkpt><trkpt lat="51.9446661137" lon="-1.9599735271"><ele>95.31</ele><time>2013-10-30T11:12:00Z</time></trkpt><trkpt lat="51.9447978772" lon="-1.9600183703"><ele>97.23</ele><time>2013-10-30T11:12:15Z</time></trkpt><trkpt lat="51.9449448958" lon="-1.9600278419"><ele>98.67</ele><time>2013-10-30T11:12:30Z</time></trkpt><trkpt lat="51.9450883102" lon="-1.9600047916"><ele>99.63</ele><time>2013-10-30T11:12:47Z</time></trkpt><trkpt lat="51.9451035652" lon="-1.9599972479"><ele>100.11</ele><time>2013-10-30T11:13:06Z</time></trkpt><trkpt lat="51.9450163096" lon="-1.9599868543"><ele>98.67</ele><time>2013-10-30T11:13:21Z</time></trkpt><trkpt lat="51.9450870529" lon="-1.9599896204"><ele>99.63</ele><time>2013-10-30T11:13:35Z</time></trkpt><trkpt lat="51.9452950079" lon="-1.9600614533"><ele>99.63</ele><time>2013-10-30T11:13:52Z</time></trkpt><trkpt lat="51.9453497417" lon="-1.9600795582"><ele>99.15</ele><time>2013-10-30T11:13:57Z</time></trkpt><trkpt lat="51.9455987681" lon="-1.9601925462"><ele>99.15</ele><time>2013-10-30T11:14:16Z</time></trkpt><trkpt lat="51.9458026160" lon="-1.9603211246"><ele>99.15</ele><time>2013-10-30T11:14:33Z</time></trkpt><trkpt lat="51.9460245688" lon="-1.9604950491"><ele>98.19</ele><time>2013-10-30T11:14:52Z</time></trkpt><trkpt lat="51.9461987447" lon="-1.9606134016"><ele>98.19</ele><time>2013-10-30T11:15:07Z</time></trkpt><trkpt lat="51.9464174286" lon="-1.9607818779"><ele>97.71</ele><time>2013-10-30T11:15:25Z</time></trkpt><trkpt lat="51.9466100447" lon="-1.9609393738"><ele>97.71</ele><time>2013-10-30T11:15:42Z</time></trkpt><trkpt lat="51.9468043372" lon="-1.9610873144"><ele>97.23</ele><time>2013-10-30T11:15:59Z</time></trkpt><trkpt lat="51.9469863921" lon="-1.9612278789"><ele>96.75</ele><time>2013-10-30T11:16:16Z</time></trkpt><trkpt lat="51.9471773319" lon="-1.9614943396"><ele>97.23</ele><time>2013-10-30T11:16:34Z</time></trkpt><trkpt lat="51.9472764898" lon="-1.9617581181"><ele>97.71</ele><time>2013-10-30T11:16:50Z</time></trkpt><trkpt lat="51.9473666791" lon="-1.9619792327"><ele>97.71</ele><time>2013-10-30T11:17:07Z</time></trkpt><trkpt lat="51.9473774079" lon="-1.9620182086"><ele>97.23</ele><time>2013-10-30T11:17:24Z</time></trkpt><trkpt lat="51.9473800063" lon="-1.9620244950"><ele>97.23</ele><time>2013-10-30T11:17:46Z</time></trkpt><trkpt lat="51.9474199042" lon="-1.9621001836"><ele>97.23</ele><time>2013-10-30T11:18:01Z</time></trkpt><trkpt lat="51.9475039747" lon="-1.9623471983"><ele>95.79</ele><time>2013-10-30T11:18:19Z</time></trkpt><trkpt lat="51.9475151226" lon="-1.9623796362"><ele>95.31</ele><time>2013-10-30T11:18:21Z</time></trkpt><trkpt lat="51.9475763943" lon="-1.9627001602"><ele>92.90</ele><time>2013-10-30T11:18:38Z</time></trkpt><trkpt lat="51.9475792442" lon="-1.9627448358"><ele>92.90</ele><time>2013-10-30T11:18:40Z</time></trkpt><trkpt lat="51.9475892186" lon="-1.9630593248"><ele>91.46</ele><time>2013-10-30T11:18:56Z</time></trkpt><trkpt lat="51.9475972652" lon="-1.9631161541"><ele>91.46</ele><time>2013-10-30T11:18:59Z</time></trkpt><trkpt lat="51.9476424437" lon="-1.9633125421"><ele>91.94</ele><time>2013-10-30T11:19:14Z</time></trkpt><trkpt lat="51.9477229938" lon="-1.9635459781"><ele>93.87</ele><time>2013-10-30T11:19:32Z</time></trkpt><trkpt lat="51.9478384964" lon="-1.9637663383"><ele>96.27</ele><time>2013-10-30T11:19:51Z</time></trkpt><trkpt lat="51.9479015283" lon="-1.9638861995"><ele>97.23</ele><time>2013-10-30T11:20:06Z</time></trkpt><trkpt lat="51.9480016083" lon="-1.9640908856"><ele>97.71</ele><time>2013-10-30T11:20:22Z</time></trkpt><trkpt lat="51.9480565935" lon="-1.9641742017"><ele>97.71</ele><time>2013-10-30T11:20:28Z</time></trkpt><trkpt lat="51.9481400773" lon="-1.9643166941"><ele>97.71</ele><time>2013-10-30T11:20:41Z</time></trkpt><trkpt lat="51.9481890276" lon="-1.9644365553"><ele>96.75</ele><time>2013-10-30T11:20:56Z</time></trkpt><trkpt lat="51.9483622815" lon="-1.9646973163"><ele>96.27</ele><time>2013-10-30T11:21:13Z</time></trkpt><trkpt lat="51.9485808816" lon="-1.9649412297"><ele>97.71</ele><time>2013-10-30T11:21:29Z</time></trkpt><trkpt lat="51.9487798680" lon="-1.9651065208"><ele>97.71</ele><time>2013-10-30T11:21:46Z</time></trkpt><trkpt lat="51.9489309937" lon="-1.9652495161"><ele>98.19</ele><time>2013-10-30T11:22:02Z</time></trkpt><trkpt lat="51.9490941055" lon="-1.9653825369"><ele>98.67</ele><time>2013-10-30T11:22:18Z</time></trkpt><trkpt lat="51.9492345862" lon="-1.9655284658"><ele>98.67</ele><time>2013-10-30T11:22:33Z</time></trkpt><trkpt lat="51.9494246878" lon="-1.9656939246"><ele>98.19</ele><time>2013-10-30T11:22:51Z</time></trkpt><trkpt lat="51.9495612290" lon="-1.9658133667"><ele>97.23</ele><time>2013-10-30T11:23:06Z</time></trkpt><trkpt lat="51.9497111812" lon="-1.9659362454"><ele>97.71</ele><time>2013-10-30T11:23:21Z</time></trkpt><trkpt lat="51.9498998579" lon="-1.9661010336"><ele>97.71</ele><time>2013-10-30T11:23:39Z</time></trkpt><trkpt lat="51.9500054698" lon="-1.9661151990"><ele>97.23</ele><time>2013-10-30T11:23:54Z</time></trkpt><trkpt lat="51.9500176236" lon="-1.9661228266"><ele>97.71</ele><time>2013-10-30T11:24:00Z</time></trkpt><trkpt lat="51.9500558451" lon="-1.9661057275"><ele>97.71</ele><time>2013-10-30T11:24:04Z</time></trkpt><trkpt lat="51.9502257463" lon="-1.9660654105"><ele>97.71</ele><time>2013-10-30T11:24:22Z</time></trkpt><trkpt lat="51.9502965733" lon="-1.9660472218"><ele>97.71</ele><time>2013-10-30T11:24:34Z</time></trkpt><trkpt lat="51.9503757823" lon="-1.9660066534"><ele>96.75</ele><time>2013-10-30T11:24:42Z</time></trkpt><trkpt lat="51.9504682347" lon="-1.9659522548"><ele>96.75</ele><time>2013-10-30T11:24:57Z</time></trkpt><trkpt lat="51.9504907820" lon="-1.9659639895"><ele>96.27</ele><time>2013-10-30T11:25:14Z</time></trkpt><trkpt lat="51.9505257346" lon="-1.9660519157"><ele>96.27</ele><time>2013-10-30T11:25:22Z</time></trkpt><trkpt lat="51.9505813066" lon="-1.9662821665"><ele>95.79</ele><time>2013-10-30T11:25:35Z</time></trkpt><trkpt lat="51.9506435841" lon="-1.9665555004"><ele>94.83</ele><time>2013-10-30T11:25:52Z</time></trkpt><trkpt lat="51.9506782852" lon="-1.9667732622"><ele>94.35</ele><time>2013-10-30T11:26:06Z</time></trkpt><trkpt lat="51.9507101364" lon="-1.9670029264"><ele>94.35</ele><time>2013-10-30T11:26:21Z</time></trkpt><trkpt lat="51.9507134054" lon="-1.9670186844"><ele>94.35</ele><time>2013-10-30T11:26:22Z</time></trkpt><trkpt lat="51.9507311750" lon="-1.9671846461"><ele>94.35</ele><time>2013-10-30T11:26:38Z</time></trkpt><trkpt lat="51.9507300854" lon="-1.9671999849"><ele>94.35</ele><time>2013-10-30T11:26:40Z</time></trkpt><trkpt lat="51.9507089630" lon="-1.9672358595"><ele>94.35</ele><time>2013-10-30T11:26:43Z</time></trkpt><trkpt lat="51.9506051112" lon="-1.9674428087"><ele>95.31</ele><time>2013-10-30T11:26:57Z</time></trkpt><trkpt lat="51.9504708331" lon="-1.9675781764"><ele>95.79</ele><time>2013-10-30T11:27:12Z</time></trkpt><trkpt lat="51.9503399078" lon="-1.9677048270"><ele>96.75</ele><time>2013-10-30T11:27:28Z</time></trkpt><trkpt lat="51.9502247404" lon="-1.9678012189"><ele>96.75</ele><time>2013-10-30T11:27:44Z</time></trkpt><trkpt lat="51.9501118362" lon="-1.9679026399"><ele>97.71</ele><time>2013-10-30T11:27:59Z</time></trkpt><trkpt lat="51.9500458706" lon="-1.9679487403"><ele>98.19</ele><time>2013-10-30T11:28:11Z</time></trkpt><trkpt lat="51.9499116763" lon="-1.9680159632"><ele>98.19</ele><time>2013-10-30T11:28:26Z</time></trkpt><trkpt lat="51.9498020411" lon="-1.9680961780"><ele>99.15</ele><time>2013-10-30T11:28:43Z</time></trkpt><trkpt lat="51.9497942459" lon="-1.9681157079"><ele>98.67</ele><time>2013-10-30T11:29:02Z</time></trkpt><trkpt lat="51.9497712795" lon="-1.9682017900"><ele>98.67</ele><time>2013-10-30T11:29:20Z</time></trkpt><trkpt lat="51.9496662542" lon="-1.9683713559"><ele>98.67</ele><time>2013-10-30T11:29:33Z</time></trkpt><trkpt lat="51.9496515859" lon="-1.9683985133"><ele>98.19</ele><time>2013-10-30T11:29:35Z</time></trkpt><trkpt lat="51.9495209958" lon="-1.9686208013"><ele>99.15</ele><time>2013-10-30T11:29:51Z</time></trkpt><trkpt lat="51.9494077563" lon="-1.9688110705"><ele>98.67</ele><time>2013-10-30T11:30:07Z</time></trkpt><trkpt lat="51.9492907450" lon="-1.9690192770"><ele>99.15</ele><time>2013-10-30T11:30:27Z</time></trkpt><trkpt lat="51.9491935149" lon="-1.9691895973"><ele>99.63</ele><time>2013-10-30T11:30:44Z</time></trkpt><trkpt lat="51.9490980450" lon="-1.9693896733"><ele>99.63</ele><time>2013-10-30T11:31:00Z</time></trkpt><trkpt lat="51.9490141422" lon="-1.9695277233"><ele>100.11</ele><time>2013-10-30T11:31:16Z</time></trkpt><trkpt lat="51.9489215221" lon="-1.9697270449"><ele>99.63</ele><time>2013-10-30T11:31:34Z</time></trkpt><trkpt lat="51.9488115516" lon="-1.9699427113"><ele>100.11</ele><time>2013-10-30T11:31:52Z</time></trkpt><trkpt lat="51.9487204403" lon="-1.9701011293"><ele>100.60</ele><time>2013-10-30T11:32:08Z</time></trkpt><trkpt lat="51.9486186001" lon="-1.9702878781"><ele>100.60</ele><time>2013-10-30T11:32:23Z</time></trkpt><trkpt lat="51.9485228788" lon="-1.9704874512"><ele>101.56</ele><time>2013-10-30T11:32:41Z</time></trkpt><trkpt lat="51.9484308455" lon="-1.9706475455"><ele>101.56</ele><time>2013-10-30T11:32:57Z</time></trkpt><trkpt lat="51.9483450986" lon="-1.9708719291"><ele>102.04</ele><time>2013-10-30T11:33:14Z</time></trkpt><trkpt lat="51.9483304303" lon="-1.9709149282"><ele>101.56</ele><time>2013-10-30T11:33:18Z</time></trkpt><trkpt lat="51.9482216332" lon="-1.9711460173"><ele>102.04</ele><time>2013-10-30T11:33:37Z</time></trkpt><trkpt lat="51.9481062982" lon="-1.9713507034"><ele>102.52</ele><time>2013-10-30T11:33:55Z</time></trkpt><trkpt lat="51.9480462838" lon="-1.9715133961"><ele>102.52</ele><time>2013-10-30T11:34:12Z</time></trkpt><trkpt lat="51.9479729421" lon="-1.9716433994"><ele>102.04</ele><time>2013-10-30T11:34:26Z</time></trkpt><trkpt lat="51.9478912186" lon="-1.9718143903"><ele>102.52</ele><time>2013-10-30T11:34:42Z</time></trkpt><trkpt lat="51.9478033762" lon="-1.9719781727"><ele>103.00</ele><time>2013-10-30T11:34:58Z</time></trkpt><trkpt lat="51.9477002788" lon="-1.9721454754"><ele>103.00</ele><time>2013-10-30T11:35:16Z</time></trkpt><trkpt lat="51.9475794956" lon="-1.9723396841"><ele>103.48</ele><time>2013-10-30T11:35:34Z</time></trkpt><trkpt lat="51.9474862050" lon="-1.9724856969"><ele>104.44</ele><time>2013-10-30T11:35:52Z</time></trkpt><trkpt lat="51.9473672658" lon="-1.9726576935"><ele>104.44</ele><time>2013-10-30T11:36:10Z</time></trkpt><trkpt lat="51.9472822733" lon="-1.9728042930"><ele>104.92</ele><time>2013-10-30T11:36:24Z</time></trkpt><trkpt lat="51.9471897371" lon="-1.9729908742"><ele>104.92</ele><time>2013-10-30T11:36:42Z</time></trkpt><trkpt lat="51.9471937604" lon="-1.9730887748"><ele>104.44</ele><time>2013-10-30T11:37:00Z</time></trkpt><trkpt lat="51.9472446386" lon="-1.9731368870"><ele>104.92</ele><time>2013-10-30T11:37:13Z</time></trkpt><trkpt lat="51.9472447224" lon="-1.9731275830"><ele>104.92</ele><time>2013-10-30T11:37:36Z</time></trkpt><trkpt lat="51.9472479913" lon="-1.9731243979"><ele>105.40</ele><time>2013-10-30T11:37:57Z</time></trkpt><trkpt lat="51.9472855423" lon="-1.9731664751"><ele>104.44</ele><time>2013-10-30T11:38:09Z</time></trkpt><trkpt lat="51.9473049883" lon="-1.9731564168"><ele>104.92</ele><time>2013-10-30T11:38:11Z</time></trkpt><trkpt lat="51.9474245980" lon="-1.9730210491"><ele>104.92</ele><time>2013-10-30T11:38:25Z</time></trkpt><trkpt lat="51.9474928267" lon="-1.9729039539"><ele>104.92</ele><time>2013-10-30T11:38:38Z</time></trkpt><trkpt lat="51.9475202356" lon="-1.9729192089"><ele>103.96</ele><time>2013-10-30T11:38:59Z</time></trkpt><trkpt lat="51.9475278631" lon="-1.9728951529"><ele>104.92</ele><time>2013-10-30T11:39:21Z</time></trkpt><trkpt lat="51.9475507457" lon="-1.9728093222"><ele>104.92</ele><time>2013-10-30T11:39:27Z</time></trkpt><trkpt lat="51.9476109277" lon="-1.9726654887"><ele>103.96</ele><time>2013-10-30T11:39:36Z</time></trkpt><trkpt lat="51.9477284420" lon="-1.9724459667"><ele>104.44</ele><time>2013-10-30T11:39:51Z</time></trkpt><trkpt lat="51.9478334673" lon="-1.9722635765"><ele>103.96</ele><time>2013-10-30T11:40:04Z</time></trkpt><trkpt lat="51.9479370676" lon="-1.9720370974"><ele>103.48</ele><time>2013-10-30T11:40:19Z</time></trkpt><trkpt lat="51.9480526540" lon="-1.9717899151"><ele>103.48</ele><time>2013-10-30T11:40:36Z</time></trkpt><trkpt lat="51.9481643010" lon="-1.9715567306"><ele>103.00</ele><time>2013-10-30T11:40:51Z</time></trkpt><trkpt lat="51.9481752813" lon="-1.9715201017"><ele>103.00</ele><time>2013-10-30T11:40:53Z</time></trkpt><trkpt lat="51.9482162688" lon="-1.9714531302"><ele>103.48</ele><time>2013-10-30T11:40:58Z</time></trkpt><trkpt lat="51.9483282510" lon="-1.9711926207"><ele>103.00</ele><time>2013-10-30T11:41:14Z</time></trkpt><trkpt lat="51.9484402332" lon="-1.9710081350"><ele>102.52</ele><time>2013-10-30T11:41:27Z</time></trkpt><trkpt lat="51.9484459329" lon="-1.9709953945"><ele>102.52</ele><time>2013-10-30T11:41:28Z</time></trkpt><trkpt lat="51.9485442527" lon="-1.9708137587"><ele>102.52</ele><time>2013-10-30T11:41:41Z</time></trkpt><trkpt lat="51.9486424886" lon="-1.9705985114"><ele>102.04</ele><time>2013-10-30T11:41:55Z</time></trkpt><trkpt lat="51.9486826379" lon="-1.9704727829"><ele>101.56</ele><time>2013-10-30T11:42:03Z</time></trkpt><trkpt lat="51.9486968033" lon="-1.9704391714"><ele>102.04</ele><time>2013-10-30T11:42:05Z</time></trkpt><trkpt lat="51.9488123059" lon="-1.9702560268"><ele>101.56</ele><time>2013-10-30T11:42:20Z</time></trkpt><trkpt lat="51.9488942809" lon="-1.9700981118"><ele>101.56</ele><time>2013-10-30T11:42:36Z</time></trkpt><trkpt lat="51.9488952868" lon="-1.9700942561"><ele>101.56</ele><time>2013-10-30T11:43:01Z</time></trkpt><trkpt lat="51.9489031658" lon="-1.9700749777"><ele>102.04</ele><time>2013-10-30T11:43:15Z</time></trkpt><trkpt lat="51.9489454105" lon="-1.9700276200"><ele>101.56</ele><time>2013-10-30T11:43:19Z</time></trkpt><trkpt lat="51.9491581433" lon="-1.9698524382"><ele>101.08</ele><time>2013-10-30T11:43:35Z</time></trkpt><trkpt lat="51.9493339118" lon="-1.9697599020"><ele>100.60</ele><time>2013-10-30T11:43:49Z</time></trkpt><trkpt lat="51.9495056570" lon="-1.9697160646"><ele>100.11</ele><time>2013-10-30T11:44:03Z</time></trkpt><trkpt lat="51.9496651646" lon="-1.9696812797"><ele>99.63</ele><time>2013-10-30T11:44:16Z</time></trkpt><trkpt lat="51.9498571102" lon="-1.9696347602"><ele>98.67</ele><time>2013-10-30T11:44:30Z</time></trkpt><trkpt lat="51.9500210602" lon="-1.9695931859"><ele>97.71</ele><time>2013-10-30T11:44:44Z</time></trkpt><trkpt lat="51.9501567632" lon="-1.9695293158"><ele>96.75</ele><time>2013-10-30T11:44:56Z</time></trkpt><trkpt lat="51.9501983374" lon="-1.9695188385"><ele>96.75</ele><time>2013-10-30T11:45:00Z</time></trkpt><trkpt lat="51.9503596053" lon="-1.9694735762"><ele>94.35</ele><time>2013-10-30T11:45:16Z</time></trkpt><trkpt lat="51.9503652211" lon="-1.9694573991"><ele>95.31</ele><time>2013-10-30T11:45:30Z</time></trkpt><trkpt lat="51.9504427537" lon="-1.9694373664"><ele>93.39</ele><time>2013-10-30T11:45:44Z</time></trkpt><trkpt lat="51.9504488725" lon="-1.9694390427"><ele>94.35</ele><time>2013-10-30T11:46:03Z</time></trkpt><trkpt lat="51.9504753593" lon="-1.9694481790"><ele>93.39</ele><time>2013-10-30T11:46:18Z</time></trkpt><trkpt lat="51.9506580010" lon="-1.9694806170"><ele>92.42</ele><time>2013-10-30T11:46:35Z</time></trkpt><trkpt lat="51.9508556463" lon="-1.9694646075"><ele>92.42</ele><time>2013-10-30T11:46:52Z</time></trkpt><trkpt lat="51.9510351866" lon="-1.9694477599"><ele>92.42</ele><time>2013-10-30T11:47:09Z</time></trkpt><trkpt lat="51.9511875696" lon="-1.9694384560"><ele>92.90</ele><time>2013-10-30T11:47:24Z</time></trkpt><trkpt lat="51.9512760825" lon="-1.9693856500"><ele>92.90</ele><time>2013-10-30T11:47:36Z</time></trkpt><trkpt lat="51.9513647631" lon="-1.9692771044"><ele>93.39</ele><time>2013-10-30T11:47:52Z</time></trkpt><trkpt lat="51.9514012244" lon="-1.9690307602"><ele>92.90</ele><time>2013-10-30T11:48:09Z</time></trkpt><trkpt lat="51.9514317345" lon="-1.9689927064"><ele>92.42</ele><time>2013-10-30T11:48:12Z</time></trkpt><trkpt lat="51.9515237678" lon="-1.9688031077"><ele>91.94</ele><time>2013-10-30T11:48:26Z</time></trkpt><trkpt lat="51.9516647514" lon="-1.9686861802"><ele>91.94</ele><time>2013-10-30T11:48:39Z</time></trkpt><trkpt lat="51.9517687708" lon="-1.9687585160"><ele>92.90</ele><time>2013-10-30T11:48:52Z</time></trkpt><trkpt lat="51.9519001152" lon="-1.9689131621"><ele>96.27</ele><time>2013-10-30T11:49:08Z</time></trkpt><trkpt lat="51.9519585371" lon="-1.9689709973"><ele>96.75</ele><time>2013-10-30T11:49:13Z</time></trkpt><trkpt lat="51.9521554280" lon="-1.9690973964"><ele>99.63</ele><time>2013-10-30T11:49:30Z</time></trkpt><trkpt lat="51.9521867763" lon="-1.9691709056"><ele>100.11</ele><time>2013-10-30T11:49:42Z</time></trkpt><trkpt lat="51.9522400852" lon="-1.9692807924"><ele>100.11</ele><time>2013-10-30T11:49:54Z</time></trkpt><trkpt lat="51.9522590283" lon="-1.9695475046"><ele>100.60</ele><time>2013-10-30T11:50:10Z</time></trkpt><trkpt lat="51.9522083178" lon="-1.9697682001"><ele>101.08</ele><time>2013-10-30T11:50:25Z</time></trkpt><trkpt lat="51.9521498960" lon="-1.9699992053"><ele>101.56</ele><time>2013-10-30T11:50:42Z</time></trkpt><trkpt lat="51.9521002751" lon="-1.9703047257"><ele>101.08</ele><time>2013-10-30T11:51:00Z</time></trkpt><trkpt lat="51.9520934019" lon="-1.9704519957"><ele>101.08</ele><time>2013-10-30T11:51:13Z</time></trkpt><trkpt lat="51.9520470500" lon="-1.9707215577"><ele>102.04</ele><time>2013-10-30T11:51:29Z</time></trkpt><trkpt lat="51.9520346448" lon="-1.9709082227"><ele>102.52</ele><time>2013-10-30T11:51:42Z</time></trkpt><trkpt lat="51.9519491494" lon="-1.9711295050"><ele>103.00</ele><time>2013-10-30T11:52:00Z</time></trkpt><trkpt lat="51.9518723711" lon="-1.9713301677"><ele>102.52</ele><time>2013-10-30T11:52:14Z</time></trkpt><trkpt lat="51.9517996162" lon="-1.9715239573"><ele>103.00</ele><time>2013-10-30T11:52:27Z</time></trkpt><trkpt lat="51.9517000392" lon="-1.9716475904"><ele>103.48</ele><time>2013-10-30T11:52:41Z</time></trkpt><trkpt lat="51.9516969379" lon="-1.9718373567"><ele>103.96</ele><time>2013-10-30T11:52:54Z</time></trkpt><trkpt lat="51.9518328086" lon="-1.9720893167"><ele>103.96</ele><time>2013-10-30T11:53:12Z</time></trkpt><trkpt lat="51.9519255124" lon="-1.9723065756"><ele>104.92</ele><time>2013-10-30T11:53:28Z</time></trkpt><trkpt lat="51.9519195613" lon="-1.9722945057"><ele>104.92</ele><time>2013-10-30T11:53:43Z</time></trkpt><trkpt lat="51.9519235846" lon="-1.9723029714"><ele>104.44</ele><time>2013-10-30T11:53:53Z</time></trkpt><trkpt lat="51.9519480597" lon="-1.9723266922"><ele>103.96</ele><time>2013-10-30T11:53:56Z</time></trkpt><trkpt lat="51.9520162884" lon="-1.9722952601"><ele>105.40</ele><time>2013-10-30T11:54:09Z</time></trkpt><trkpt lat="51.9520172104" lon="-1.9721730519"><ele>105.40</ele><time>2013-10-30T11:54:21Z</time></trkpt><trkpt lat="51.9520192221" lon="-1.9721688610"><ele>105.88</ele><time>2013-10-30T11:54:29Z</time></trkpt></trkseg></trk></gpx>